Time;durP1;ratioP1;P1;durP2;ratioP2;P2;SDS_P1;SDS_P2;PMS_P1;PMS_P2;Temp;Humidity;BMP_temperature;BMP_pressure;BME280_temperature;BME280_humidity;BME280_pressure;Samples;Min_cycle;Max_cycle;Signal;HPM_P1;HPM_P2
2022/10/20 00:01:28;;;;;;;27.95;9.65;;;;;;;17.12;91.89;100685.00;7393068;19;20003;-59
2022/10/20 00:03:55;;;;;;;31.40;9.90;;;;;;;17.12;92.09;100679.69;7389156;19;20014;-59
2022/10/20 00:06:25;;;;;;;25.33;10.20;;;;;;;17.12;92.11;100679.69;7386666;19;20491;-60
2022/10/20 00:08:53;;;;;;;24.20;10.55;;;;;;;17.12;92.04;100677.81;7392062;19;20018;-61
2022/10/20 00:11:21;;;;;;;27.10;11.05;;;;;;;17.14;92.48;100669.66;7393001;19;20686;-60
2022/10/20 00:13:51;;;;;;;23.23;9.75;;;;;;;17.16;92.57;100659.66;7392343;19;20017;-59
2022/10/20 00:16:19;;;;;;;22.05;9.75;;;;;;;17.16;92.51;100657.81;7392437;19;20014;-61
2022/10/20 00:18:46;;;;;;;29.38;11.50;;;;;;;17.16;92.43;100649.03;7393174;19;20013;-61
2022/10/20 00:21:16;;;;;;;23.35;10.95;;;;;;;17.16;92.47;100631.22;7391485;19;20014;-62
2022/10/20 00:23:44;;;;;;;24.98;10.60;;;;;;;17.16;92.67;100617.94;7391592;19;20028;-62
2022/10/20 00:26:15;;;;;;;28.30;11.57;;;;;;;17.17;93.09;100614.22;7392363;19;20015;-61
2022/10/20 00:28:42;;;;;;;27.02;10.48;;;;;;;17.18;92.77;100596.44;7392552;19;20400;-60
2022/10/20 00:31:10;;;;;;;23.83;10.02;;;;;;;17.19;92.56;100609.53;7391490;19;20015;-62
2022/10/20 00:33:37;;;;;;;24.20;10.25;;;;;;;17.19;92.47;100625.50;7392245;19;20498;-60
2022/10/20 00:36:07;;;;;;;27.13;10.48;;;;;;;17.19;92.39;100624.69;7391474;19;20019;-60
2022/10/20 00:38:34;;;;;;;25.10;10.07;;;;;;;17.20;92.28;100621.00;7390232;19;20026;-62
2022/10/20 00:41:02;;;;;;;20.20;9.68;;;;;;;17.20;92.48;100615.69;7390932;19;20038;-61
2022/10/20 00:43:52;;;;;;;27.98;11.38;;;;;;;17.22;92.63;100608.34;7392143;19;20018;-61
2022/10/20 00:46:27;;;;;;;27.10;11.15;;;;;;;17.22;92.30;100595.03;7391227;19;20018;-61
2022/10/20 00:48:59;;;;;;;27.60;10.23;;;;;;;17.23;91.94;100604.63;7390825;19;20015;-61
2022/10/20 00:51:29;;;;;;;27.00;11.10;;;;;;;17.20;91.81;100589.09;7388438;19;20015;-59
2022/10/20 00:54:07;;;;;;;33.05;11.77;;;;;;;17.17;92.38;100600.94;7390790;19;20045;-60
2022/10/20 00:56:39;;;;;;;27.67;11.43;;;;;;;17.17;92.38;100600.94;7390991;19;20504;-62
2022/10/20 00:59:06;;;;;;;28.33;11.63;;;;;;;17.17;92.57;100605.47;7389178;19;20046;-61
2022/10/20 01:01:34;;;;;;;27.50;11.77;;;;;;;17.17;92.82;100600.94;7390018;19;20424;-59
2022/10/20 01:04:01;;;;;;;25.02;10.40;;;;;;;17.15;92.75;100597.69;7389708;19;20702;-60
2022/10/20 01:06:28;;;;;;;29.10;10.73;;;;;;;17.16;92.70;100593.19;7390245;19;20341;-61
2022/10/20 01:09:09;;;;;;;26.77;11.45;;;;;;;17.16;92.73;100609.97;7385383;19;20329;-61
2022/10/20 01:11:57;;;;;;;23.98;11.48;;;;;;;17.16;93.12;100606.47;7364207;19;20015;-62
2022/10/20 01:14:45;;;;;;;28.27;12.07;;;;;;;17.16;93.54;100603.81;7386223;19;20581;-60
2022/10/20 01:17:39;;;;;;;26.48;11.00;;;;;;;17.16;93.43;100609.97;7390402;19;20022;-63
2022/10/20 01:20:37;;;;;;;25.42;10.50;;;;;;;17.16;93.31;100607.28;7390401;19;20014;-60
2022/10/20 01:23:22;;;;;;;28.40;11.30;;;;;;;17.15;93.43;100594.19;7390779;19;20463;-61
2022/10/20 01:25:55;;;;;;;29.05;11.57;;;;;;;17.14;93.57;100590.72;7389699;19;20010;-59
2022/10/20 01:28:26;;;;;;;;;;;;;;;17.13;93.75;100583.75;7390219;19;20010;-60
2022/10/20 01:30:58;;;;;;;31.30;11.23;;;;;;;17.12;93.86;100587.41;7390341;19;20383;-61
2022/10/20 01:33:43;;;;;;;28.27;11.57;;;;;;;17.10;93.94;100581.50;7390288;19;20043;-59
2022/10/20 01:36:17;;;;;;;28.98;11.48;;;;;;;17.08;93.94;100584.34;7389783;19;20015;-61
2022/10/20 01:39:11;;;;;;;26.85;10.98;;;;;;;17.08;93.84;100584.34;7390365;19;20353;-61
2022/10/20 01:41:48;;;;;;;30.35;10.77;;;;;;;17.07;93.91;100585.38;7385905;19;20014;-60
2022/10/20 01:44:18;;;;;;;28.60;12.07;;;;;;;17.07;94.09;100589.88;7389976;19;20054;-59
2022/10/20 01:46:45;;;;;;;30.20;12.88;;;;;;;17.08;94.38;100591.50;7388626;19;20663;-59
2022/10/20 01:49:14;;;;;;;29.35;11.88;;;;;;;17.07;94.33;100590.69;7389995;19;20633;-60
2022/10/20 01:51:40;;;;;;;29.65;13.57;;;;;;;17.08;94.20;100596.81;7389012;19;20018;-60
2022/10/20 01:54:29;;;;;;;26.15;12.13;;;;;;;17.07;94.31;100590.69;7385876;19;20442;-59
2022/10/20 01:57:17;;;;;;;31.17;12.48;;;;;;;17.07;94.43;100589.88;7385483;19;20048;-59
2022/10/20 01:59:49;;;;;;;30.27;12.27;;;;;;;17.07;94.52;100580.06;7388940;19;20018;-59
2022/10/20 02:02:47;;;;;;;34.20;12.75;;;;;;;17.09;94.39;100566.56;7388959;19;20019;-59
2022/10/20 02:05:36;;;;;;;38.38;12.98;;;;;;;17.08;94.21;100580.88;7389879;19;20026;-59
2022/10/20 02:08:28;;;;;;;23.77;11.35;;;;;;;17.07;94.33;100572.06;7389147;19;20035;-60
2022/10/20 02:11:00;;;;;;;30.30;12.45;;;;;;;17.07;94.28;100558.78;7384348;19;20022;-59
2022/10/20 02:13:29;;;;;;;33.15;13.10;;;;;;;17.08;94.44;100567.59;7389923;19;20047;-61
2022/10/20 02:16:00;;;;;;;33.78;12.45;;;;;;;17.09;94.56;100558.59;7386145;19;20064;-60
2022/10/20 02:18:32;;;;;;;32.13;12.77;;;;;;;17.09;94.84;100545.28;7389018;19;20399;-61
2022/10/20 02:21:01;;;;;;;30.10;11.80;;;;;;;17.09;94.70;100532.00;7386142;19;20064;-61
2022/10/20 02:23:30;;;;;;;27.75;12.45;;;;;;;17.09;94.81;100534.66;7390559;19;20324;-60
2022/10/20 02:26:05;;;;;;;29.30;12.23;;;;;;;17.08;94.73;100525.88;7383585;19;20023;-60
2022/10/20 02:28:36;;;;;;;31.63;12.52;;;;;;;17.08;94.82;100515.22;7389639;19;20022;-60
2022/10/20 02:31:03;;;;;;;32.67;13.95;;;;;;;17.10;94.67;100530.97;7387903;19;20348;-60
2022/10/20 02:33:32;;;;;;;31.42;14.50;;;;;;;17.12;95.11;100531.59;7389277;19;20011;-60
2022/10/20 02:35:59;;;;;;;23.58;11.80;;;;;;;17.13;94.91;100522.59;7386397;19;20017;-62
2022/10/20 02:38:26;;;;;;;30.50;12.73;;;;;;;17.14;94.95;100524.25;7389032;19;20007;-60
2022/10/20 02:40:53;;;;;;;33.58;13.20;;;;;;;17.14;94.81;100510.13;7386216;19;20043;-61
2022/10/20 02:43:19;;;;;;;28.98;12.88;;;;;;;17.13;94.88;100511.97;7388155;19;20014;-61
2022/10/20 02:45:46;;;;;;;32.15;15.40;;;;;;;17.13;94.91;100503.97;7388507;19;20025;-61
2022/10/20 02:48:13;;;;;;;39.85;16.00;;;;;;;17.14;95.18;100502.13;7387799;19;20142;-61
2022/10/20 02:50:40;;;;;;;36.05;14.40;;;;;;;17.14;95.82;100502.97;7387749;19;20018;-60
2022/10/20 02:53:06;;;;;;;29.00;13.95;;;;;;;17.14;95.73;100496.81;7387887;19;20352;-60
2022/10/20 02:55:33;;;;;;;31.88;13.40;;;;;;;17.15;95.57;100493.97;7387057;19;20014;-60
2022/10/20 02:58:00;;;;;;;32.58;13.27;;;;;;;17.13;95.52;100493.34;7380871;19;20063;-60
2022/10/20 03:00:29;;;;;;;27.05;13.45;;;;;;;17.13;95.74;100493.34;7388579;19;20018;-59
2022/10/20 03:02:56;;;;;;;32.78;13.60;;;;;;;17.15;95.56;100501.94;7385737;19;20011;-60
2022/10/20 03:05:23;;;;;;;32.53;13.88;;;;;;;17.16;96.04;100500.94;7388776;19;20018;-61
2022/10/20 03:07:50;;;;;;;30.17;12.90;;;;;;;17.17;95.95;100483.94;7385996;19;20019;-64
2022/10/20 03:10:17;;;;;;;28.88;12.93;;;;;;;17.15;95.82;100469.22;7382265;19;20043;-58
2022/10/20 03:12:44;;;;;;;25.73;12.50;;;;;;;17.17;95.85;100478.63;7384408;19;20014;-60
2022/10/20 03:15:11;;;;;;;35.80;13.00;;;;;;;17.16;95.89;100479.66;7385564;19;20483;-61
2022/10/20 03:17:38;;;;;;;33.22;13.38;;;;;;;17.15;95.81;100475.34;7386263;19;20058;-60
2022/10/20 03:20:06;;;;;;;31.05;13.25;;;;;;;17.15;96.26;100475.34;7386805;19;20439;-60
2022/10/20 03:22:32;;;;;;;30.10;13.35;;;;;;;17.16;96.48;100462.88;7386529;19;20148;-61
2022/10/20 03:24:59;;;;;;;30.85;13.73;;;;;;;17.17;96.56;100461.88;7385615;19;20040;-61
2022/10/20 03:27:26;;;;;;;31.60;13.02;;;;;;;17.18;96.41;100466.13;7382063;19;20018;-61
2022/10/20 03:29:53;;;;;;;32.45;14.27;;;;;;;17.16;96.34;100468.19;7386812;19;20031;-61
2022/10/20 03:32:19;;;;;;;32.35;13.70;;;;;;;17.16;96.26;100466.38;7386123;19;20126;-61
2022/10/20 03:34:46;;;;;;;33.78;15.38;;;;;;;17.19;96.62;100475.75;7385237;19;20010;-61
2022/10/20 03:37:13;;;;;;;29.77;13.75;;;;;;;17.20;97.10;100480.06;7386062;19;20014;-62
2022/10/20 03:39:40;;;;;;;35.50;14.20;;;;;;;17.22;97.01;100486.00;7387051;19;20047;-61
2022/10/20 03:42:07;;;;;;;32.33;14.00;;;;;;;17.23;97.04;100488.44;7383110;19;20037;-60
2022/10/20 03:44:33;;;;;;;29.50;13.57;;;;;;;17.23;96.85;100482.28;7387403;19;20035;-61
2022/10/20 03:47:02;;;;;;;28.75;13.30;;;;;;;17.21;97.05;100469.22;7385410;19;20586;-61
2022/10/20 03:49:30;;;;;;;32.58;13.80;;;;;;;17.21;96.95;100461.25;7386169;19;20010;-61
2022/10/20 03:51:57;;;;;;;36.13;13.93;;;;;;;17.23;97.28;100461.03;7385371;19;20022;-61
2022/10/20 03:54:24;;;;;;;35.60;14.93;;;;;;;17.22;97.48;100470.06;7386496;19;20040;-61
2022/10/20 03:56:51;;;;;;;36.83;15.52;;;;;;;17.24;97.42;100474.13;7382768;19;20018;-61
2022/10/20 03:59:17;;;;;;;33.22;13.70;;;;;;;17.22;97.42;100470.84;7387079;19;20809;-60
2022/10/20 04:01:45;;;;;;;38.15;14.63;;;;;;;17.24;97.17;100482.09;7385215;19;20039;-60
2022/10/20 04:04:12;;;;;;;32.10;14.10;;;;;;;17.23;97.12;100479.63;7384377;19;20039;-61
2022/10/20 04:06:39;;;;;;;48.42;19.73;;;;;;;17.22;97.25;100470.06;7384639;19;20036;-61
2022/10/20 04:09:06;;;;;;;33.80;15.10;;;;;;;17.22;97.61;100473.50;7386755;19;20018;-61
2022/10/20 04:11:33;;;;;;;36.95;14.77;;;;;;;17.24;97.83;100463.47;7380452;19;20026;-59
2022/10/20 04:13:59;;;;;;;33.78;13.52;;;;;;;17.24;97.83;100460.00;7383991;19;20022;-60
2022/10/20 04:16:26;;;;;;;34.97;14.02;;;;;;;17.23;97.52;100453.88;7382323;19;20363;-60
2022/10/20 04:18:54;;;;;;;36.30;15.13;;;;;;;17.23;97.61;100443.22;7386190;19;20002;-60
2022/10/20 04:21:21;;;;;;;34.65;13.77;;;;;;;17.24;97.71;100444.88;7386918;19;20483;-61
2022/10/20 04:23:48;;;;;;;40.38;18.85;;;;;;;17.24;97.70;100441.38;7393730;19;20020;-63
2022/10/20 04:26:15;;;;;;;36.75;14.95;;;;;;;17.24;98.18;100436.06;7388618;19;20030;-61
2022/10/20 04:28:42;;;;;;;38.08;15.20;;;;;;;17.25;98.34;100438.53;7392124;19;20026;-59
2022/10/20 04:31:09;;;;;;;33.97;14.43;;;;;;;17.24;97.94;100436.91;7391851;19;20121;-61
2022/10/20 04:33:36;;;;;;;48.13;13.40;;;;;;;17.22;98.02;100425.63;7391084;19;20040;-64
2022/10/20 04:36:09;;;;;;;39.65;14.02;;;;;;;17.23;98.30;100418.47;7390255;19;20014;-61
2022/10/20 04:38:35;;;;;;;;;;;;;;;17.22;98.29;100404.34;7393405;19;20399;-61
2022/10/20 04:41:04;;;;;;;35.72;14.07;;;;;;;17.20;98.36;100410.91;7388615;19;19922;-61
2022/10/20 04:43:31;;;;;;;39.47;15.55;;;;;;;17.21;99.00;100410.72;7393292;19;20011;-62
2022/10/20 04:46:04;;;;;;;33.80;15.13;;;;;;;17.22;98.60;100412.34;7391255;19;20014;-61
2022/10/20 04:48:35;;;;;;;33.63;14.43;;;;;;;17.21;98.80;100410.72;7392601;19;20011;-61
2022/10/20 04:51:08;;;;;;;36.47;14.27;;;;;;;17.21;98.71;100402.75;7392310;19;20026;-60
2022/10/20 04:53:35;;;;;;;34.55;13.43;;;;;;;17.22;98.72;100416.88;7393597;19;20790;-61
2022/10/20 04:56:04;;;;;;;44.47;14.57;;;;;;;17.19;99.02;100399.47;7386391;19;20143;-60
2022/10/20 04:58:31;;;;;;;38.67;16.35;;;;;;;17.21;99.57;100404.59;7392800;19;20035;-61
2022/10/20 05:01:06;;;;;;;39.78;16.85;;;;;;;17.23;99.69;100397.19;7390445;19;20047;-61
2022/10/20 05:03:34;;;;;;;39.17;15.85;;;;;;;17.24;99.72;100399.66;7390280;19;20046;-60
2022/10/20 05:06:11;;;;;;;36.55;14.50;;;;;;;17.24;99.49;100401.50;7390157;19;20046;-61
2022/10/20 05:08:40;;;;;;;39.50;14.80;;;;;;;17.24;99.63;100388.22;7392637;19;20014;-62
2022/10/20 05:11:08;;;;;;;39.20;15.30;;;;;;;17.22;99.69;100388.41;7386663;19;20325;-62
2022/10/20 05:13:35;;;;;;;45.17;19.60;;;;;;;17.22;99.84;100385.75;7391714;19;20018;-61
2022/10/20 05:16:02;;;;;;;48.53;17.33;;;;;;;17.25;100.00;100382.69;7388600;19;20042;-61
2022/10/20 05:18:29;;;;;;;38.50;15.43;;;;;;;17.27;100.00;100379.84;7391085;19;21169;-61
2022/10/20 05:20:57;;;;;;;39.42;15.10;;;;;;;17.28;100.00;100373.47;7387424;19;20377;-59
2022/10/20 05:23:34;;;;;;;38.97;14.80;;;;;;;17.27;100.00;100364.66;7391243;19;20502;-61
2022/10/20 05:26:06;;;;;;;38.67;15.20;;;;;;;17.25;100.00;100361.41;7385129;19;20048;-61
2022/10/20 05:28:33;;;;;;;39.33;14.77;;;;;;;17.24;100.00;100359.78;7392001;19;20010;-61
2022/10/20 05:31:02;;;;;;;39.40;14.98;;;;;;;17.26;100.00;100346.28;7388820;19;20014;-61
2022/10/20 05:33:29;;;;;;;47.20;16.80;;;;;;;17.29;100.00;100349.31;7389626;19;20007;-61
2022/10/20 05:35:55;;;;;;;41.03;15.50;;;;;;;17.30;100.00;100343.00;7388207;19;20035;-60
2022/10/20 05:38:22;;;;;;;38.22;14.80;;;;;;;17.30;100.00;100336.84;7391020;19;20039;-61
2022/10/20 05:40:49;;;;;;;37.20;16.42;;;;;;;17.28;100.00;100334.38;7388922;19;20014;-60
2022/10/20 05:43:16;;;;;;;41.17;15.32;;;;;;;17.24;100.00;100335.84;7388610;19;20391;-62
2022/10/20 05:45:43;;;;;;;34.08;15.25;;;;;;;17.24;100.00;100330.53;7389650;19;20064;-61
2022/10/20 05:48:09;;;;;;;35.13;15.38;;;;;;;17.23;100.00;100334.19;7390262;19;20022;-60
2022/10/20 05:50:37;;;;;;;38.92;15.77;;;;;;;17.23;100.00;100317.41;7389630;19;20460;-61
2022/10/20 05:53:04;;;;;;;39.38;14.90;;;;;;;17.23;100.00;100318.25;7388534;19;20029;-60
2022/10/20 05:55:31;;;;;;;44.20;15.55;;;;;;;17.22;100.00;100321.13;7389241;19;20539;-59
2022/10/20 05:57:58;;;;;;;34.35;14.98;;;;;;;17.21;99.99;100319.50;7385144;19;20022;-59
2022/10/20 06:00:29;;;;;;;35.83;15.55;;;;;;;17.20;100.00;100315.19;7388951;19;20378;-60
2022/10/20 06:02:56;;;;;;;36.20;15.45;;;;;;;17.20;100.00;100321.31;7389147;19;20042;-61
2022/10/20 06:05:23;;;;;;;36.10;16.85;;;;;;;17.21;100.00;100328.28;7389594;19;20006;-59
2022/10/20 06:07:53;;;;;;;37.15;15.63;;;;;;;17.21;100.00;100333.59;7389342;19;20011;-62
2022/10/20 06:10:20;;;;;;;35.33;15.15;;;;;;;17.20;100.00;100329.31;7390285;19;20572;-62
2022/10/20 06:12:47;;;;;;;37.92;15.70;;;;;;;17.20;100.00;100333.81;7384151;19;20014;-58
2022/10/20 06:15:13;;;;;;;37.58;16.52;;;;;;;17.19;100.00;100338.31;7389495;19;20018;-61
2022/10/20 06:17:41;;;;;;;38.95;15.77;;;;;;;17.18;100.00;100339.31;7386774;19;20476;-61
2022/10/20 06:20:08;;;;;;;42.50;18.08;;;;;;;17.18;100.00;100339.31;7388701;19;20023;-61
2022/10/20 06:22:34;;;;;;;42.28;16.85;;;;;;;17.20;100.00;100339.94;7387955;19;20026;-60
2022/10/20 06:25:02;;;;;;;39.10;14.70;;;;;;;17.22;100.00;100337.88;7388245;19;20376;-60
2022/10/20 06:27:29;;;;;;;36.05;16.02;;;;;;;17.21;100.00;100330.13;7383180;19;20048;-61
2022/10/20 06:29:55;;;;;;;41.38;16.70;;;;;;;17.20;100.00;100329.31;7388108;19;20039;-61
2022/10/20 06:32:22;;;;;;;44.25;16.45;;;;;;;17.19;100.00;100319.69;7387953;19;20689;-61
2022/10/20 06:34:49;;;;;;;40.80;15.65;;;;;;;17.20;100.00;100313.34;7388664;19;20321;-61
2022/10/20 06:37:16;;;;;;;127.70;23.42;;;;;;;17.21;100.00;100314.19;7384658;19;20718;-61
2022/10/20 06:39:42;;;;;;;38.70;16.08;;;;;;;17.24;100.00;100322.53;7388711;19;20732;-62
2022/10/20 06:42:09;;;;;;;49.95;16.80;;;;;;;17.27;100.00;100324.78;7384950;19;20022;-63
2022/10/20 06:44:37;;;;;;;43.50;16.50;;;;;;;17.29;100.00;100317.41;7387097;19;20511;-59
2022/10/20 06:47:08;;;;;;;44.80;15.93;;;;;;;17.29;100.00;100319.25;7387728;19;20703;-61
2022/10/20 06:49:36;;;;;;;45.35;16.95;;;;;;;17.28;100.00;100315.78;7387810;19;20014;-61
2022/10/20 06:52:03;;;;;;;48.20;16.05;;;;;;;17.29;100.00;100322.72;7386704;19;20045;-60
2022/10/20 06:54:31;;;;;;;47.75;17.73;;;;;;;17.29;100.00;100317.41;7388564;19;20377;-60
2022/10/20 06:57:00;;;;;;;46.40;17.25;;;;;;;17.29;100.00;100316.59;7382008;19;20078;-62
2022/10/20 06:59:27;;;;;;;44.25;17.08;;;;;;;17.29;100.00;100314.75;7386757;19;20010;-60
2022/10/20 07:01:54;;;;;;;46.50;17.15;;;;;;;17.30;100.00;100316.41;7385302;19;20043;-59
2022/10/20 07:04:22;;;;;;;50.45;17.42;;;;;;;17.31;100.00;100303.91;7383526;19;20015;-60
2022/10/20 07:06:49;;;;;;;44.22;16.83;;;;;;;17.30;100.00;100297.78;7384066;19;20029;-60
2022/10/20 07:09:19;;;;;;;47.90;16.65;;;;;;;17.29;100.00;100290.00;7386771;19;20026;-60
2022/10/20 07:11:50;;;;;;;48.42;17.38;;;;;;;17.29;100.00;100298.78;7385329;19;20042;-59
2022/10/20 07:14:17;;;;;;;44.88;16.17;;;;;;;17.29;100.00;100284.69;7386068;19;20010;-60
2022/10/20 07:16:45;;;;;;;43.85;17.63;;;;;;;17.28;100.00;100275.06;7383743;19;20077;-59
2022/10/20 07:19:11;;;;;;;43.10;15.88;;;;;;;17.29;100.00;100277.53;7387579;19;20059;-60
2022/10/20 07:21:38;;;;;;;41.65;16.45;;;;;;;17.30;100.00;100281.81;7384479;19;20035;-59
2022/10/20 07:24:08;;;;;;;38.92;15.20;;;;;;;17.31;100.00;100272.00;7386583;19;20286;-60
2022/10/20 07:26:38;;;;;;;38.30;15.73;;;;;;;17.30;100.00;100263.19;7381170;19;20007;-62
2022/10/20 07:29:06;;;;;;;37.25;14.73;;;;;;;17.33;100.00;100280.56;7386568;19;20021;-59
2022/10/20 07:31:40;;;;;;;38.58;15.60;;;;;;;17.31;100.00;100272.81;7385497;19;20038;-60
2022/10/20 07:34:09;;;;;;;39.40;15.75;;;;;;;17.32;100.00;100274.44;7385795;19;20750;-59
2022/10/20 07:36:51;;;;;;;37.17;15.50;;;;;;;17.33;100.00;100272.59;7382373;19;20024;-60
2022/10/20 07:39:34;;;;;;;40.00;14.98;;;;;;;17.33;100.00;100281.38;7387150;19;20345;-61
2022/10/20 07:42:01;;;;;;;43.22;16.17;;;;;;;17.32;100.00;100277.09;7380912;19;20014;-59
2022/10/20 07:44:28;;;;;;;37.80;15.60;;;;;;;17.33;100.00;100285.88;7386086;19;20029;-60
2022/10/20 07:46:55;;;;;;;38.28;15.80;;;;;;;17.34;100.00;100287.53;7383128;19;20018;-61
2022/10/20 07:49:28;;;;;;;41.42;14.90;;;;;;;17.35;100.00;100284.66;7385983;19;20098;-60
2022/10/20 07:52:11;;;;;;;42.17;15.88;;;;;;;17.36;100.00;100291.63;7385949;19;20014;-59
2022/10/20 07:54:37;;;;;;;39.92;15.60;;;;;;;17.37;100.00;100298.56;7386541;19;20011;-60
2022/10/20 07:57:04;;;;;;;37.42;16.20;;;;;;;17.38;100.00;100294.88;7386948;19;20010;-59
2022/10/20 07:59:31;;;;;;;41.45;16.38;;;;;;;17.39;100.00;100296.50;7392567;19;20408;-59
2022/10/20 08:01:58;;;;;;;41.75;16.15;;;;;;;17.44;100.00;100287.91;7393098;19;20027;-60
2022/10/20 08:04:27;;;;;;;45.08;15.75;;;;;;;17.44;100.00;100299.34;7391399;19;20021;-59
2022/10/20 08:07:03;;;;;;;36.92;16.10;;;;;;;17.47;100.00;100300.78;7394254;19;20051;-61
2022/10/20 08:09:30;;;;;;;44.63;16.08;;;;;;;17.47;100.00;100301.59;7393505;19;20034;-60
2022/10/20 08:11:59;;;;;;;43.70;15.48;;;;;;;17.49;100.00;100304.84;7390353;19;20022;-60
2022/10/20 08:14:26;;;;;;;47.13;17.70;;;;;;;17.51;100.00;100302.00;7391118;19;20849;-60
2022/10/20 08:16:56;;;;;;;48.72;15.95;;;;;;;17.52;100.00;100306.31;7389353;19;20479;-60
2022/10/20 08:19:29;;;;;;;41.63;13.70;;;;;;;17.53;100.00;100305.25;7392857;19;20035;-60
2022/10/20 08:22:19;;;;;;;47.45;15.52;;;;;;;17.56;100.00;100296.88;7393422;19;20018;-60
2022/10/20 08:24:46;;;;;;;78.18;21.08;;;;;;;17.59;100.00;100300.94;7391546;19;20040;-60
2022/10/20 08:27:13;;;;;;;42.83;15.98;;;;;;;17.61;100.00;100296.25;7390388;19;20010;-60
2022/10/20 08:29:40;;;;;;;48.30;15.15;;;;;;;17.63;100.00;100297.66;7391304;19;20014;-61
2022/10/20 08:32:11;;;;;;;45.15;16.10;;;;;;;17.62;100.00;100293.41;7391862;19;20057;-60
2022/10/20 08:34:39;;;;;;;57.60;17.48;;;;;;;17.62;100.00;100295.22;7392304;19;20021;-60
2022/10/20 08:37:11;;;;;;;41.13;15.70;;;;;;;17.60;100.00;100294.63;7390780;19;20027;-60
2022/10/20 08:39:38;;;;;;;42.17;15.32;;;;;;;17.60;100.00;100283.97;7391085;19;20010;-60
2022/10/20 08:42:05;;;;;;;39.90;15.57;;;;;;;17.60;100.00;100276.81;7389840;19;20018;-61
2022/10/20 08:44:37;;;;;;;46.40;15.52;;;;;;;17.58;100.00;100273.50;7391651;19;20561;-61
2022/10/20 08:47:14;;;;;;;51.17;16.83;;;;;;;17.57;100.00;100271.06;7393095;19;20026;-60
2022/10/20 08:49:44;;;;;;;43.78;15.05;;;;;;;17.59;100.00;100269.00;7392069;19;20674;-60
2022/10/20 08:52:16;;;;;;;43.17;15.35;;;;;;;17.58;100.00;100281.47;7389659;19;20020;-59
2022/10/20 08:54:43;;;;;;;35.42;14.38;;;;;;;17.59;100.00;100279.66;7392400;19;20046;-61
2022/10/20 08:57:21;;;;;;;42.30;16.88;;;;;;;17.55;100.00;100271.28;7383454;19;20015;-60
2022/10/20 08:59:55;;;;;;;35.40;13.48;;;;;;;17.56;100.00;100282.75;7390929;19;20014;-60
2022/10/20 09:02:30;;;;;;;40.53;13.90;;;;;;;17.58;100.00;100276.16;7390380;19;20039;-59
2022/10/20 09:05:01;;;;;;;37.83;14.27;;;;;;;17.59;100.00;100271.66;7390367;19;20027;-60
2022/10/20 09:07:32;;;;;;;41.38;13.63;;;;;;;17.59;100.00;100288.47;7388286;19;20039;-59
2022/10/20 09:10:15;;;;;;;31.13;12.52;;;;;;;17.60;100.00;100284.78;7390944;19;20047;-60
2022/10/20 09:12:45;;;;;;;31.00;12.77;;;;;;;17.59;100.00;100271.66;7387833;19;20006;-59
2022/10/20 09:15:14;;;;;;;38.08;12.75;;;;;;;17.60;100.00;100271.50;7390907;19;20037;-59
2022/10/20 09:17:47;;;;;;;37.22;12.88;;;;;;;17.59;100.00;100272.50;7388355;19;20010;-60
2022/10/20 09:20:20;;;;;;;31.92;12.02;;;;;;;17.59;100.00;100276.97;7390070;19;20475;-59
2022/10/20 09:22:47;;;;;;;;;;;;;;;17.60;100.00;100276.81;7390003;19;20014;-61
2022/10/20 09:25:22;;;;;;;31.60;12.15;;;;;;;17.54;100.00;100275.78;7389642;19;19947;-61
2022/10/20 09:27:50;;;;;;;30.70;11.98;;;;;;;17.51;100.00;100273.56;7385278;19;20035;-59
2022/10/20 09:30:28;;;;;;;33.13;12.70;;;;;;;17.50;100.00;100273.75;7388993;19;20082;-60
2022/10/20 09:32:55;;;;;;;34.60;12.80;;;;;;;17.51;100.00;100272.72;7390071;19;20018;-59
2022/10/20 09:35:27;;;;;;;32.00;12.13;;;;;;;17.52;100.00;100280.47;7390984;19;20018;-60
2022/10/20 09:38:16;;;;;;;34.30;11.70;;;;;;;17.52;100.00;100275.16;7387951;19;20014;-60
2022/10/20 09:40:52;;;;;;;31.40;12.27;;;;;;;17.54;100.00;100267.81;7389442;19;20011;-60
2022/10/20 09:43:19;;;;;;;34.47;12.25;;;;;;;17.54;100.00;100269.63;7389248;19;20441;-59
2022/10/20 09:45:54;;;;;;;29.33;12.27;;;;;;;17.54;100.00;100262.47;7389052;19;20018;-61
2022/10/20 09:48:53;;;;;;;33.83;13.38;;;;;;;17.57;100.00;100260.44;7389741;19;20014;-61
2022/10/20 09:51:23;;;;;;;36.13;13.38;;;;;;;17.57;100.00;100255.94;7386184;19;20054;-61
2022/10/20 09:53:55;;;;;;;38.78;13.55;;;;;;;17.60;100.00;100260.03;7389650;19;20043;-59
2022/10/20 09:56:24;;;;;;;31.63;11.88;;;;;;;17.61;100.00;100261.66;7385771;19;20047;-59
2022/10/20 09:58:52;;;;;;;33.58;12.15;;;;;;;17.63;100.00;100270.22;7389744;19;20091;-59
2022/10/20 10:01:19;;;;;;;37.65;13.05;;;;;;;17.62;100.00;100258.81;7388088;19;20010;-59
2022/10/20 10:03:51;;;;;;;29.45;12.65;;;;;;;17.66;100.00;100269.81;7386675;19;20011;-60
2022/10/20 10:06:36;;;;;;;32.38;12.93;;;;;;;17.67;100.00;100255.50;7387474;19;20508;-58
2022/10/20 10:09:33;;;;;;;28.48;12.00;;;;;;;17.69;100.00;100267.53;7389513;19;20010;-60
2022/10/20 10:12:02;;;;;;;31.60;11.98;;;;;;;17.70;100.00;100261.19;7384957;19;20015;-61
2022/10/20 10:14:32;;;;;;;27.23;11.57;;;;;;;17.70;100.00;100260.38;7372161;19;20025;-61
2022/10/20 10:17:07;;;;;;;39.55;14.15;;;;;;;17.70;100.00;100236.44;7377771;19;20022;-60
2022/10/20 10:19:34;;;;;;;28.27;11.48;;;;;;;17.70;100.00;100239.09;7386781;19;20010;-61
2022/10/20 10:22:02;;;;;;;26.58;11.18;;;;;;;17.72;100.00;100237.88;7388854;19;20014;-59
2022/10/20 10:24:50;;;;;;;23.33;10.38;;;;;;;17.76;100.00;100233.75;7388667;19;20043;-62
2022/10/20 10:27:18;;;;;;;25.42;10.40;;;;;;;17.78;100.00;100220.19;7384796;19;20015;-60
2022/10/20 10:29:45;;;;;;;20.48;9.73;;;;;;;17.76;100.00;100227.59;7388442;19;20010;-63
2022/10/20 10:32:23;;;;;;;24.92;10.02;;;;;;;17.76;100.00;100225.75;7387681;19;20710;-60
2022/10/20 10:35:18;;;;;;;24.50;9.68;;;;;;;17.75;100.00;100210.00;7381368;19;20923;-60
2022/10/20 10:37:47;;;;;;;17.30;8.35;;;;;;;17.72;100.00;100197.94;7385732;19;20368;-60
2022/10/20 10:40:14;;;;;;;19.92;8.85;;;;;;;17.71;100.00;100206.94;7387019;19;20010;-61
2022/10/20 10:43:23;;;;;;;23.77;8.15;;;;;;;17.70;100.00;100207.97;7381411;19;20007;-59
2022/10/20 10:45:59;;;;;;;17.15;8.27;;;;;;;17.70;100.00;100201.84;7381942;19;20015;-60
2022/10/20 10:48:44;;;;;;;31.08;14.85;;;;;;;17.71;100.00;100196.31;7389088;19;20424;-60
2022/10/20 10:51:25;;;;;;;14.95;8.10;;;;;;;17.72;100.00;100197.94;7387204;19;20037;-67
2022/10/20 10:54:17;;;;;;;19.88;8.00;;;;;;;17.73;100.00;100202.22;7386043;19;20014;-60
2022/10/20 10:57:06;;;;;;;16.33;8.65;;;;;;;17.72;100.00;100191.81;7380826;19;20061;-60
2022/10/20 10:59:42;;;;;;;19.30;8.18;;;;;;;17.70;100.00;100183.22;7387785;19;20027;-59
2022/10/20 11:02:35;;;;;;;20.45;8.00;;;;;;;17.71;100.00;100185.66;7385529;19;20046;-61
2022/10/20 11:05:21;;;;;;;16.60;7.10;;;;;;;17.72;100.00;100189.16;7381981;19;20922;-61
2022/10/20 11:08:10;;;;;;;16.92;7.22;;;;;;;17.75;100.00;100181.53;7375709;19;20078;-61
2022/10/20 11:10:57;;;;;;;18.98;7.22;;;;;;;17.75;100.00;100180.72;7378791;19;20393;-62
2022/10/20 11:13:36;;;;;;;20.25;7.75;;;;;;;17.79;100.00;100177.41;7382033;19;20018;-60
2022/10/20 11:16:21;;;;;;;20.15;8.57;;;;;;;17.84;100.00;100180.22;7379606;19;20043;-58
2022/10/20 11:19:16;;;;;;;26.10;13.25;;;;;;;17.90;100.00;100167.91;7381771;19;20450;-58
2022/10/20 11:21:48;;;;;;;16.20;6.43;;;;;;;17.94;100.00;100169.09;7380491;19;20015;-60
2022/10/20 11:24:44;;;;;;;;;;;;;;;17.99;100.00;100165.78;7384612;19;20014;-60
2022/10/20 11:27:15;;;;;;;16.35;7.70;;;;;;;18.00;100.00;100162.09;7375620;19;20412;-60